Time;durP1;ratioP1;P1;durP2;ratioP2;P2;SDS_P1;SDS_P2;PMS_P1;PMS_P2;Temp;Humidity;BMP_temperature;BMP_pressure;BME280_temperature;BME280_humidity;BME280_pressure;Samples;Min_cycle;Max_cycle;Signal;HPM_P1;HPM_P2
2023/01/08 00:02:06;;;;;;;;;;;;;;;0.12;82.63;98171.38;10454704;28;20020;-56
2023/01/08 00:07:05;;;;;;;6.15;4.57;;;;;;;-0.06;82.64;98146.75;10456777;28;19979;-56
2023/01/08 00:12:04;;;;;;;;;;;;;;;-0.18;83.62;98156.41;10455195;28;20488;-55
2023/01/08 00:17:03;;;;;;;5.25;4.88;;;;;;;-0.41;83.36;98123.00;10433002;28;19934;-56
2023/01/08 00:22:02;;;;;;;;;;;;;;;-0.20;83.55;98158.84;10455107;28;20024;-56
2023/01/08 00:27:01;;;;;;;3.40;1.93;;;;;;;-0.19;83.40;98164.81;10455884;28;19916;-55
2023/01/08 00:32:00;;;;;;;;;;;;;;;-0.20;83.10;98161.41;10452599;28;20039;-56
2023/01/08 00:36:58;;;;;;;5.87;5.33;;;;;;;-0.19;82.87;98159.72;10454678;28;20367;-56
2023/01/08 00:41:57;;;;;;;;;;;;;;;-0.19;83.30;98169.94;10454199;28;20107;-56
2023/01/08 00:46:56;;;;;;;1.45;0.95;;;;;;;-0.22;83.68;98160.47;10462066;28;19969;-55
2023/01/08 00:51:55;;;;;;;;;;;;;;;-0.34;84.29;98174.31;10464482;28;20024;-55
2023/01/08 00:56:54;;;;;;;0.40;0.40;;;;;;;-0.30;83.84;98173.63;10462584;28;20017;-55
2023/01/08 01:01:53;;;;;;;21.70;15.18;;;;;;;-0.49;83.66;98154.91;10458722;28;20059;-56
2023/01/08 01:06:52;;;;;;;;;;;;;;;-0.34;83.83;98175.19;10464048;28;20441;-55
2023/01/08 01:11:51;;;;;;;1.57;1.57;;;;;;;-0.81;83.39;98105.78;10461169;28;19908;-55
2023/01/08 01:16:50;;;;;;;0.30;0.30;;;;;;;-0.38;83.84;98174.13;10462641;28;20063;-55
2023/01/08 01:21:49;;;;;;;;;;;;;;;-0.32;83.40;98168.47;10458627;28;20016;-56
2023/01/08 01:26:48;;;;;;;0.67;0.67;;;;;;;-0.53;84.06;98144.47;10462381;28;19966;-55
2023/01/08 01:31:47;;;;;;;;;;;;;;;-0.34;83.93;98159.00;10461102;28;20039;-55
2023/01/08 01:36:46;;;;;;;3.10;2.90;;;;;;;-0.38;84.15;98160.53;10462741;28;20017;-55
2023/01/08 01:41:46;;;;;;;;;;;;;;;-0.40;83.95;98157.88;10460302;28;20036;-55
2023/01/08 01:46:45;;;;;;;7.82;7.30;;;;;;;-0.52;84.03;98151.34;10460042;28;20733;-55
2023/01/08 01:51:49;;;;;;;3.28;2.97;;;;;;;-0.53;84.07;98144.47;10461231;28;20063;-55
2023/01/08 01:56:49;;;;;;;6.15;5.80;;;;;;;-0.44;83.29;98150.91;10459418;28;20066;-55
2023/01/08 02:01:48;;;;;;;3.13;2.92;;;;;;;-0.44;83.41;98152.56;10460564;28;20786;-54
2023/01/08 02:07:11;;;;;;;6.88;3.30;;;;;;;-0.48;83.05;98153.25;10458453;28;20066;-55
2023/01/08 02:12:16;;;;;;;9.20;8.60;;;;;;;-0.57;83.19;98133.28;10429655;28;20063;-55
2023/01/08 02:17:22;;;;;;;9.32;7.05;;;;;;;-0.65;83.54;98124.34;10460463;28;20447;-55
2023/01/08 02:22:45;;;;;;;0.40;0.40;;;;;;;-0.63;83.90;98143.16;10458639;28;20055;-55
2023/01/08 02:27:49;;;;;;;2.28;2.17;;;;;;;-0.75;83.40;98130.69;10457831;28;20059;-55
2023/01/08 02:32:48;;;;;;;4.55;4.25;;;;;;;-0.69;82.85;98140.31;10455767;28;20443;-55
2023/01/08 02:37:47;;;;;;;;;;;;;;;-0.70;82.99;98139.44;10436247;28;20495;-55
2023/01/08 02:43:17;;;;;;;0.20;0.20;;;;;;;-0.70;82.81;98128.38;10443869;28;20220;-57
2023/01/08 02:48:25;;;;;;;3.13;2.93;;;;;;;-0.71;82.57;98131.72;10455053;28;20075;-56
2023/01/08 02:53:27;;;;;;;3.35;3.20;;;;;;;-0.83;82.78;98122.66;10457894;28;20320;-56
2023/01/08 02:58:29;;;;;;;4.10;3.90;;;;;;;-0.88;83.58;98134.31;10456595;28;20063;-56
2023/01/08 03:03:29;;;;;;;1.88;1.83;;;;;;;-0.93;83.55;98135.75;10444585;28;20603;-56
2023/01/08 03:08:32;;;;;;;2.03;1.35;;;;;;;-1.08;83.04;98125.66;10431329;28;20470;-56
2023/01/08 03:13:39;;;;;;;0.95;0.93;;;;;;;-1.06;82.55;98134.25;10455207;28;20098;-56
2023/01/08 03:18:45;;;;;;;0.40;0.40;;;;;;;-1.03;83.61;98141.16;10456730;28;20055;-56
2023/01/08 03:23:45;;;;;;;0.82;0.82;;;;;;;-1.03;83.42;98146.25;10455419;28;20056;-56
2023/01/08 03:28:48;;;;;;;2.72;2.60;;;;;;;-1.04;83.39;98141.97;10454752;28;20094;-57
2023/01/08 03:33:48;;;;;;;0.90;0.90;;;;;;;-1.11;82.91;98130.59;10454989;28;20079;-56
2023/01/08 03:38:55;;;;;;;0.73;0.73;;;;;;;-1.14;83.03;98122.81;10455520;28;20060;-56
2023/01/08 03:43:55;;;;;;;7.93;4.53;;;;;;;-1.25;82.99;98106.13;10455264;28;20070;-56
2023/01/08 03:48:55;;;;;;;0.73;0.73;;;;;;;-1.18;82.59;98137.88;10455813;28;20071;-56
2023/01/08 03:53:58;;;;;;;55.13;27.15;;;;;;;-1.33;83.32;98143.03;10453850;28;20645;-56
2023/01/08 03:58:57;;;;;;;19.98;14.45;;;;;;;-1.39;83.45;98147.81;10456120;28;20059;-56
2023/01/08 04:03:55;;;;;;;;;;;;;;;-1.56;83.90;98154.53;10454570;28;20024;-56
2023/01/08 04:08:54;;;;;;;4.10;3.80;;;;;;;-1.69;83.40;98125.06;10455442;28;19946;-56
2023/01/08 04:13:53;;;;;;;;;;;;;;;-1.49;83.60;98156.66;10452832;28;20031;-56
2023/01/08 04:18:52;;;;;;;0.30;0.30;;;;;;;-1.46;83.57;98162.75;10456166;28;20397;-56
2023/01/08 04:23:51;;;;;;;0.43;0.43;;;;;;;-1.50;83.12;98145.56;10453257;28;20017;-56
2023/01/08 04:28:50;;;;;;;0.57;0.57;;;;;;;-1.40;83.57;98151.16;10454861;28;20507;-56
2023/01/08 04:33:49;;;;;;;;;;;;;;;-1.32;83.44;98154.97;10443699;28;20598;-56
2023/01/08 04:38:47;;;;;;;0.60;0.60;;;;;;;-1.35;83.05;98157.34;10455324;28;20409;-56
2023/01/08 04:43:46;;;;;;;;;;;;;;;-1.29;83.14;98158.53;10454627;28;20489;-57
2023/01/08 04:48:45;;;;;;;1.07;1.07;;;;;;;-1.49;83.61;98133.75;10455640;28;20014;-56
2023/01/08 04:53:45;;;;;;;;;;;;;;;-1.51;83.26;98160.78;10452006;28;20039;-56
2023/01/08 04:58:44;;;;;;;0.45;0.45;;;;;;;-1.59;83.39;98131.50;10453288;28;19943;-56
2023/01/08 05:03:42;;;;;;;;;;;;;;;-1.52;83.93;98159.00;10455690;28;20139;-56
2023/01/08 05:08:41;;;;;;;0.73;0.73;;;;;;;-1.56;83.25;98154.53;10452107;28;19950;-56
2023/01/08 05:13:40;;;;;;;1.38;1.35;;;;;;;-1.96;83.22;98116.81;10454092;28;20024;-56
2023/01/08 05:18:39;;;;;;;2.92;2.80;;;;;;;-1.77;82.25;98167.91;10451645;28;20121;-56
2023/01/08 05:23:38;;;;;;;;;;;;;;;-1.82;82.25;98165.88;10454615;28;20020;-56
2023/01/08 05:28:37;;;;;;;0.30;0.30;;;;;;;-1.92;82.99;98167.06;10455541;28;19920;-56
2023/01/08 05:33:37;;;;;;;1.77;1.70;;;;;;;-2.08;82.31;98133.19;10460576;28;20036;-56
2023/01/08 05:38:37;;;;;;;7.25;6.72;;;;;;;-1.91;82.46;98164.63;10456230;28;20063;-56
2023/01/08 05:43:36;;;;;;;0.57;0.57;;;;;;;-1.93;82.26;98158.56;10461029;28;20071;-56
2023/01/08 05:48:36;;;;;;;6.32;5.72;;;;;;;-2.13;82.27;98132.03;10460586;28;20066;-56
2023/01/08 05:53:35;;;;;;;6.05;5.68;;;;;;;-2.21;82.67;98129.88;10460431;28;20697;-56
2023/01/08 05:58:34;;;;;;;1.00;1.00;;;;;;;-2.09;82.34;98145.81;10459484;28;20113;-56
2023/01/08 06:03:33;;;;;;;;;;;;;;;-1.93;82.61;98160.25;10438014;28;20376;-56
2023/01/08 06:08:32;;;;;;;0.30;0.30;;;;;;;-1.90;82.59;98165.47;10458162;28;19951;-57
2023/01/08 06:13:32;;;;;;;2.40;2.30;;;;;;;-1.96;82.29;98152.41;10457518;28;20105;-56
2023/01/08 06:18:31;;;;;;;3.22;2.15;;;;;;;-1.90;82.51;98147.69;10459817;28;20059;-56
2023/01/08 06:23:30;;;;;;;;;;;;;;;-1.71;81.89;98164.81;10458349;28;20036;-56
2023/01/08 06:28:29;;;;;;;6.47;4.03;;;;;;;-1.70;82.26;98164.03;10458363;28;19959;-56
2023/01/08 06:33:29;;;;;;;0.82;0.82;;;;;;;-1.66;83.17;98161.72;10449782;28;20060;-56
2023/01/08 06:38:35;;;;;;;4.55;4.35;;;;;;;-1.65;82.56;98152.41;10450648;28;20063;-56
2023/01/08 06:43:35;;;;;;;4.45;4.15;;;;;;;-1.51;83.11;98168.41;10451051;28;20560;-56
2023/01/08 06:48:35;;;;;;;1.98;1.88;;;;;;;-1.50;82.99;98162.50;10434674;28;20074;-56
2023/01/08 06:53:34;;;;;;;3.03;2.75;;;;;;;-1.39;83.03;98170.72;10457940;28;20056;-56
2023/01/08 06:58:33;;;;;;;;;;;;;;;-1.22;82.43;98185.19;10458965;28;20020;-56
2023/01/08 07:03:32;;;;;;;11.30;10.43;;;;;;;-1.17;82.30;98186.31;10454915;28;20472;-56
2023/01/08 07:08:31;;;;;;;;;;;;;;;-1.09;82.23;98189.28;10458316;28;20113;-55
2023/01/08 07:13:30;;;;;;;17.97;10.40;;;;;;;-1.16;82.54;98177.03;10456097;28;19919;-56
2023/01/08 07:18:29;;;;;;;;;;;;;;;-0.90;82.92;98196.19;10458222;28;20102;-55
2023/01/08 07:23:27;;;;;;;6.82;6.32;;;;;;;-0.92;82.21;98162.09;10455640;28;19973;-55
2023/01/08 07:28:27;;;;;;;;;;;;;;;-0.56;82.17;98203.81;10455601;28;20039;-57
2023/01/08 08:09:31;;;;;;;0.20;0.20;;;;;;;0.40;85.53;98179.47;10482451;27;20473;-58
2023/01/08 08:14:29;;;;;;;;;;;;;;;0.86;84.46;98184.09;10487430;28;20064;-57
2023/01/08 08:19:28;;;;;;;12.10;10.90;;;;;;;1.21;83.92;98191.56;10490137;28;19916;-57
2023/01/08 08:24:27;;;;;;;;;;;;;;;1.51;83.13;98184.31;10487889;28;20086;-57
2023/01/08 08:29:26;;;;;;;3.58;2.60;;;;;;;1.74;82.86;98187.81;10473260;28;19908;-58
2023/01/08 08:34:25;;;;;;;29.65;28.20;;;;;;;1.99;81.83;98187.09;10486449;28;20031;-57
2023/01/08 08:39:24;;;;;;;;;;;;;;;2.24;81.48;98171.00;10470330;28;20040;-57
2023/01/08 08:44:22;;;;;;;1.42;1.33;;;;;;;2.49;80.66;98175.38;10479849;28;20002;-57
2023/01/08 08:49:21;;;;;;;5.20;4.57;;;;;;;2.66;80.57;98176.00;10459982;28;20042;-57
2023/01/08 08:54:20;;;;;;;14.38;12.82;;;;;;;2.84;79.73;98170.69;10474617;28;20036;-57
2023/01/08 08:59:19;;;;;;;8.80;7.90;;;;;;;2.94;79.17;98162.50;10484979;28;20034;-56
2023/01/08 09:04:18;;;;;;;23.98;18.45;;;;;;;3.23;78.98;98167.75;10484686;28;20055;-57
2023/01/08 09:09:18;;;;;;;36.92;22.20;;;;;;;3.43;78.68;98161.63;10464753;28;20147;-55
2023/01/08 09:14:17;;;;;;;10.90;9.52;;;;;;;3.61;78.68;98145.06;10452957;28;20070;-56
2023/01/08 09:19:16;;;;;;;1.83;1.55;;;;;;;3.81;77.68;98126.06;10457988;28;20028;-57
2023/01/08 09:24:15;;;;;;;17.13;11.93;;;;;;;4.13;76.61;98133.91;10455155;28;20036;-57
2023/01/08 09:29:14;;;;;;;1.02;1.02;;;;;;;4.34;76.71;98136.25;10459777;28;20062;-57
2023/01/08 09:34:13;;;;;;;;;;;;;;;4.52;77.00;98133.31;10457783;28;20067;-58
2023/01/08 09:39:12;;;;;;;21.52;10.48;;;;;;;4.55;77.06;98107.72;10458797;28;19911;-58
2023/01/08 09:44:13;;;;;;;;;;;;;;;4.81;76.37;98121.31;10459339;28;20032;-57
2023/01/08 09:49:20;;;;;;;11.52;8.93;;;;;;;5.08;76.08;98100.63;10459378;28;19947;-59
2023/01/08 09:54:23;;;;;;;0.20;0.20;;;;;;;5.34;75.69;98090.13;10454525;28;20522;-58
2023/01/08 09:59:21;;;;;;;3.05;2.85;;;;;;;5.55;74.31;98077.81;10449874;28;20151;-57
2023/01/08 10:04:24;;;;;;;15.52;6.28;;;;;;;5.70;72.74;98071.28;10427824;28;20034;-56
2023/01/08 10:09:27;;;;;;;1.45;1.35;;;;;;;5.78;72.62;98053.41;10428890;28;20071;-56
2023/01/08 10:14:30;;;;;;;4.25;3.25;;;;;;;5.95;71.52;98036.63;10418676;28;20056;-57
2023/01/08 10:19:29;;;;;;;5.22;4.75;;;;;;;6.25;69.94;98056.16;10445211;28;20480;-58
2023/01/08 10:24:34;;;;;;;0.45;0.45;;;;;;;6.51;69.18;98034.34;10452863;28;20426;-60
2023/01/08 10:29:33;;;;;;;15.68;8.65;;;;;;;6.72;68.13;98033.03;10443076;28;20119;-57
2023/01/08 10:34:43;;;;;;;4.32;3.83;;;;;;;6.94;66.90;98022.25;10453540;28;20036;-57
2023/01/08 10:39:46;;;;;;;0.20;0.20;;;;;;;7.16;64.96;98007.13;10455068;28;20075;-57
2023/01/08 10:44:56;;;;;;;4.38;4.18;;;;;;;7.31;64.59;97996.19;10456800;28;20071;-57
2023/01/08 10:49:56;;;;;;;;;;;;;;;7.50;63.91;97993.09;10457353;28;20066;-58
2023/01/08 10:54:55;;;;;;;;;;;;;;;7.82;62.61;97982.34;10457424;28;19958;-57
2023/01/08 10:59:54;;;;;;;4.72;4.35;;;;;;;8.05;61.46;97972.31;10453926;28;19916;-58
2023/01/08 11:04:53;;;;;;;5.68;3.72;;;;;;;8.28;59.59;97957.06;10457203;28;20079;-57
2023/01/08 11:09:53;;;;;;;2.38;2.22;;;;;;;8.64;59.00;97948.81;10455080;28;20129;-59
2023/01/08 11:14:52;;;;;;;0.25;0.25;;;;;;;8.81;59.46;97938.66;10456622;28;20081;-58
2023/01/08 11:19:52;;;;;;;0.57;0.57;;;;;;;9.14;58.67;97953.59;10452861;28;20036;-58
2023/01/08 11:24:52;;;;;;;13.45;4.78;;;;;;;9.30;58.25;97954.59;10456291;28;20058;-56
2023/01/08 11:30:12;;;;;;;2.33;2.15;;;;;;;9.65;56.09;97940.13;10453794;28;20060;-57
2023/01/08 11:35:19;;;;;;;0.20;0.20;;;;;;;9.98;54.88;97936.84;10456016;28;20456;-57
2023/01/08 11:40:33;;;;;;;3.70;3.10;;;;;;;10.35;54.06;97935.22;10363113;28;20080;-57
2023/01/08 11:45:51;;;;;;;2.22;1.92;;;;;;;10.62;53.07;97926.66;10386116;28;20072;-58
2023/01/08 11:51:14;;;;;;;0.63;0.63;;;;;;;10.93;52.69;97921.50;10360870;28;20076;-58
2023/01/08 11:56:55;;;;;;;0.77;0.77;;;;;;;11.02;51.34;97900.75;10373416;28;20663;-57
2023/01/08 12:02:12;;;;;;;0.20;0.20;;;;;;;11.36;50.72;97913.72;10348766;28;20087;-58
2023/01/08 12:07:40;;;;;;;0.25;0.25;;;;;;;11.63;48.26;97904.13;10371790;28;20496;-57
2023/01/08 12:12:45;;;;;;;0.47;0.47;;;;;;;11.97;46.86;97886.66;10361696;28;20080;-57
2023/01/08 12:18:05;;;;;;;2.92;2.65;;;;;;;12.22;45.61;97889.13;10368721;28;20133;-58
2023/01/08 12:23:10;;;;;;;0.73;0.73;;;;;;;12.54;45.29;97881.16;10349075;28;20120;-58
2023/01/08 12:28:23;;;;;;;0.80;0.73;;;;;;;12.78;43.89;97871.44;10364922;28;20935;-58
2023/01/08 12:33:42;;;;;;;0.10;0.10;;;;;;;12.83;42.56;97874.88;10358467;28;20127;-58
2023/01/08 12:38:43;;;;;;;0.20;0.20;;;;;;;12.97;42.62;97874.75;10355380;28;20071;-58
2023/01/08 12:44:01;;;;;;;2.08;0.75;;;;;;;13.01;42.04;97861.69;10373374;28;20079;-58
2023/01/08 12:49:03;;;;;;;0.25;0.25;;;;;;;13.08;41.80;97868.56;10377270;28;20064;-58
2023/01/08 12:54:22;;;;;;;0.43;0.40;;;;;;;13.17;41.50;97864.16;10376694;28;20080;-58
2023/01/08 12:59:43;;;;;;;0.30;0.30;;;;;;;13.20;40.84;97865.00;10364892;28;20060;-57
2023/01/08 13:04:47;;;;;;;0.10;0.10;;;;;;;13.22;40.68;97857.16;10354874;28;20581;-58
2023/01/08 13:10:05;;;;;;;0.20;0.20;;;;;;;13.25;40.53;97867.56;10374826;28;20075;-59
2023/01/08 13:15:06;;;;;;;0.20;0.20;;;;;;;13.25;40.28;97852.78;10376969;28;20064;-58
2023/01/08 13:20:06;;;;;;;6.28;4.05;;;;;;;13.21;39.95;97842.38;10377859;28;20083;-58
2023/01/08 13:25:15;;;;;;;2.00;1.90;;;;;;;13.28;39.88;97857.09;10373876;28;20098;-57
2023/01/08 13:30:30;;;;;;;0.30;0.30;;;;;;;13.19;39.80;97863.28;10375178;28;20071;-59
2023/01/08 13:35:30;;;;;;;0.85;0.85;;;;;;;13.06;39.96;97849.47;10376050;28;20097;-58
2023/01/08 13:40:35;;;;;;;0.20;0.20;;;;;;;13.20;39.92;97865.00;10372530;28;20065;-58
2023/01/08 13:45:35;;;;;;;9.95;4.50;;;;;;;12.96;39.19;97845.25;10373544;28;20060;-59
2023/01/08 13:50:36;;;;;;;7.68;5.05;;;;;;;13.03;38.88;97856.47;10372273;28;20112;-57
2023/01/08 13:55:38;;;;;;;5.55;4.90;;;;;;;12.80;42.37;97869.69;10376395;28;20079;-58
2023/01/08 14:00:40;;;;;;;1.35;1.27;;;;;;;12.77;42.98;97873.19;10376306;28;20522;-62
2023/01/08 14:05:39;;;;;;;0.75;0.75;;;;;;;12.64;43.04;97854.19;10376332;28;20068;-57
2023/01/08 14:10:38;;;;;;;;;;;;;;;12.20;43.91;97877.88;10374085;28;20036;-58
2023/01/08 14:15:37;;;;;;;0.40;0.40;;;;;;;12.22;44.16;97882.19;10377266;28;20003;-58
2023/01/08 14:20:39;;;;;;;1.30;1.20;;;;;;;11.91;44.75;97849.41;10375947;28;20076;-58
2023/01/08 14:25:41;;;;;;;1.33;1.27;;;;;;;11.81;46.75;97872.88;10374304;28;20064;-58
2023/01/08 14:30:53;;;;;;;15.55;13.98;;;;;;;11.59;47.59;97864.25;10372582;28;20061;-58
2023/01/08 14:35:54;;;;;;;8.23;4.53;;;;;;;11.39;48.71;97886.84;10354564;28;20057;-57
2023/01/08 14:41:12;;;;;;;8.02;7.43;;;;;;;10.76;50.44;97879.09;10359101;28;20072;-58
2023/01/08 14:46:23;;;;;;;14.57;8.00;;;;;;;10.16;52.49;97876.41;10372817;28;20071;-58
2023/01/08 14:51:25;;;;;;;6.15;3.80;;;;;;;9.39;54.54;97844.16;10373579;28;20072;-58
2023/01/08 14:56:32;;;;;;;6.03;1.80;;;;;;;9.53;53.81;97870.97;10373151;28;20104;-58
2023/01/08 15:01:32;;;;;;;7.43;4.80;;;;;;;9.29;54.09;97849.28;10371381;28;20079;-58
2023/01/08 15:06:32;;;;;;;1.67;1.55;;;;;;;9.25;54.52;97883.72;10361986;28;20500;-58
2023/01/08 15:11:48;;;;;;;2.10;1.95;;;;;;;8.84;54.59;97852.41;10354477;28;20134;-57
2023/01/08 15:16:47;;;;;;;11.95;11.07;;;;;;;8.64;56.66;97894.50;10350877;28;20109;-57
2023/01/08 15:21:47;;;;;;;10.82;6.68;;;;;;;8.56;56.26;97880.63;10363026;28;20080;-58
2023/01/08 15:26:46;;;;;;;4.15;3.72;;;;;;;8.14;57.53;97857.81;10371847;28;20091;-57
2023/01/08 15:31:47;;;;;;;3.95;3.60;;;;;;;8.24;57.45;97888.94;10357307;28;20071;-58
2023/01/08 15:36:46;;;;;;;5.45;5.05;;;;;;;8.03;57.89;97899.03;10386196;28;20067;-57
2023/01/08 15:47:02;;;;;;;1.38;1.38;;;;;;;7.71;58.17;97872.81;10409151;28;20597;-58
2023/01/08 15:52:01;;;;;;;2.25;2.05;;;;;;;7.38;59.56;97881.84;10400997;28;20402;-58
2023/01/08 15:57:00;;;;;;;0.30;0.30;;;;;;;7.21;60.61;97894.50;10406840;28;20072;-57
2023/01/08 16:01:59;;;;;;;0.40;0.40;;;;;;;7.18;60.50;97899.63;10404037;28;20075;-58
2023/01/08 16:06:58;;;;;;;0.55;0.55;;;;;;;6.58;63.14;97876.34;10409639;28;20039;-58
2023/01/08 16:11:57;;;;;;;2.17;2.05;;;;;;;6.53;63.62;97905.47;10410725;28;20068;-58
2023/01/08 16:16:56;;;;;;;1.55;1.48;;;;;;;6.36;63.36;97875.13;10413207;28;20104;-57
2023/01/08 16:21:56;;;;;;;2.35;2.25;;;;;;;6.23;65.52;97895.47;10405473;28;20039;-57
2023/01/08 16:26:55;;;;;;;15.15;8.70;;;;;;;6.25;64.90;97897.25;10410036;28;20455;-57
2023/01/08 16:31:54;;;;;;;0.90;0.90;;;;;;;6.01;66.12;97913.13;10407395;28;20391;-57
2023/01/08 16:36:53;;;;;;;4.18;3.85;;;;;;;5.86;66.34;97887.94;10403197;28;20070;-58
2023/01/08 16:41:52;;;;;;;4.80;2.75;;;;;;;5.82;66.95;97900.72;10406115;28;20029;-58
2023/01/08 16:46:51;;;;;;;11.68;10.23;;;;;;;5.83;66.53;97905.88;10416783;28;20121;-57
2023/01/08 16:51:50;;;;;;;1.85;1.75;;;;;;;5.68;67.85;97903.00;10415134;28;20060;-57
2023/01/08 16:56:50;;;;;;;;;;;;;;;5.61;66.84;97916.59;10413804;28;21119;-57
2023/01/08 17:01:50;;;;;;;0.25;0.25;;;;;;;5.48;67.63;97915.44;10411297;28;19956;-59
2023/01/08 17:06:49;;;;;;;0.57;0.57;;;;;;;5.18;68.54;97888.22;10413353;28;20077;-58
2023/01/08 17:11:48;;;;;;;1.85;1.75;;;;;;;5.30;67.94;97921.06;10408559;28;20420;-57
2023/01/08 17:16:48;;;;;;;10.10;9.25;;;;;;;4.91;69.72;97896.13;10416128;28;20137;-58
2023/01/08 17:21:49;;;;;;;;;;;;;;;4.95;70.02;97926.28;10416027;28;20056;-58
2023/01/08 17:26:47;;;;;;;5.80;5.50;;;;;;;4.75;70.58;97937.72;10403191;28;19974;-58
2023/01/08 17:31:46;;;;;;;14.50;8.35;;;;;;;4.40;71.84;97901.72;10410646;28;20059;-58
2023/01/08 17:36:45;;;;;;;3.13;2.95;;;;;;;4.53;72.32;97934.63;10413962;28;20064;-57
2023/01/08 17:47:02;;;;;;;3.97;2.83;;;;;;;4.32;72.83;97934.06;10402546;28;20151;-57
2023/01/08 17:52:01;;;;;;;1.13;1.13;;;;;;;4.16;73.37;97949.06;10413019;28;20041;-59
2023/01/08 17:57:00;;;;;;;;;;;;;;;4.04;73.84;97953.88;10411799;28;20066;-56
2023/01/08 18:01:59;;;;;;;1.98;1.85;;;;;;;3.87;73.85;97961.09;10414125;28;20019;-57
2023/01/08 18:06:58;;;;;;;2.00;1.85;;;;;;;3.78;74.79;97966.81;10393241;28;20123;-57
2023/01/08 18:11:57;;;;;;;6.60;6.00;;;;;;;3.67;74.47;97950.25;10407424;28;20076;-57
2023/01/08 18:16:56;;;;;;;;;;;;;;;3.63;75.05;97966.38;10413457;28;20059;-57
2023/01/08 18:21:55;;;;;;;9.13;8.27;;;;;;;3.59;75.46;97969.69;10413105;28;20007;-57
2023/01/08 18:26:54;;;;;;;24.45;14.13;;;;;;;3.27;76.21;97954.19;10411854;28;20028;-57
2023/01/08 18:31:53;;;;;;;12.25;7.20;;;;;;;3.33;76.81;97982.59;10413909;28;20083;-58
2023/01/08 18:36:52;;;;;;;0.10;0.10;;;;;;;3.05;77.37;97950.09;10401935;28;20044;-57
2023/01/08 18:47:11;;;;;;;0.22;0.22;;;;;;;2.99;78.73;97957.56;10411182;28;20071;-57
2023/01/08 18:52:12;;;;;;;5.65;2.42;;;;;;;2.98;79.54;97972.09;10409982;28;20060;-57
2023/01/08 18:57:11;;;;;;;1.38;1.27;;;;;;;2.88;80.46;97977.72;10412916;28;20059;-58
2023/01/08 19:02:20;;;;;;;3.03;2.10;;;;;;;3.06;79.51;97974.03;10412460;28;20117;-57
2023/01/08 19:07:19;;;;;;;3.30;3.10;;;;;;;2.93;79.64;97976.19;10393332;28;20530;-58
2023/01/08 19:12:18;;;;;;;1.73;1.60;;;;;;;2.67;79.78;97938.56;10406892;28;20534;-57
2023/01/08 19:17:17;;;;;;;4.95;3.17;;;;;;;2.81;79.51;97975.78;10409224;28;20037;-58
2023/01/08 19:22:16;;;;;;;10.60;5.57;;;;;;;2.78;79.20;97978.25;10412289;28;20514;-57
2023/01/08 19:27:15;;;;;;;20.80;12.10;;;;;;;2.61;79.66;97984.50;10408685;28;20032;-57
2023/01/08 19:32:14;;;;;;;21.20;9.18;;;;;;;2.21;80.40;97970.28;10404088;28;20036;-56
2023/01/08 19:37:13;;;;;;;5.05;4.60;;;;;;;1.94;81.13;97976.19;10407082;28;20120;-57
2023/01/08 19:47:29;;;;;;;4.70;2.30;;;;;;;1.78;82.01;98014.81;10408153;28;20787;-57
2023/01/08 19:52:29;;;;;;;1.98;1.88;;;;;;;1.67;82.07;98010.19;10408066;28;20040;-58
2023/01/08 19:57:27;;;;;;;;;;;;;;;1.75;82.13;98013.88;10414320;28;20067;-57
2023/01/08 20:02:26;;;;;;;0.67;0.67;;;;;;;1.72;81.63;98005.22;10396889;28;19916;-57
2023/01/08 20:07:25;;;;;;;7.25;3.60;;;;;;;1.73;81.60;98005.28;10405619;28;20485;-58
2023/01/08 20:12:24;;;;;;;;;;;;;;;1.70;82.05;98004.31;10387959;28;20051;-57
2023/01/08 20:17:24;;;;;;;4.60;3.03;;;;;;;1.57;82.12;97989.28;10407714;28;20011;-57
2023/01/08 20:22:24;;;;;;;7.95;2.92;;;;;;;1.53;82.74;98006.22;10412971;28;20087;-58
2023/01/08 20:27:23;;;;;;;13.80;7.30;;;;;;;1.25;83.53;97982.13;10409914;28;20064;-57
2023/01/08 20:32:21;;;;;;;1.75;1.65;;;;;;;1.37;83.70;98001.31;10411545;28;20040;-57
2023/01/08 20:37:20;;;;;;;14.57;11.68;;;;;;;1.32;84.18;98001.16;10409977;28;20483;-56
2023/01/08 20:42:19;;;;;;;;;;;;;;;1.19;84.01;97997.22;10409325;28;20037;-56
2023/01/08 20:47:18;;;;;;;11.50;4.57;;;;;;;1.06;84.45;97989.88;10410383;28;19916;-57
2023/01/08 20:52:17;;;;;;;;;;;;;;;1.11;84.67;98008.84;10399876;28;20094;-57
2023/01/08 20:57:16;;;;;;;0.20;0.20;;;;;;;1.03;84.56;97990.63;10407065;28;19971;-57
2023/01/08 21:02:15;;;;;;;;;;;;;;;1.04;84.76;98002.59;10409389;28;20047;-57
2023/01/08 21:07:14;;;;;;;4.35;3.95;;;;;;;1.09;84.34;98005.34;10389256;28;20007;-58
2023/01/08 21:12:13;;;;;;;;;;;;;;;0.91;84.69;98008.00;10404713;28;20517;-58
2023/01/08 21:17:12;;;;;;;14.13;7.57;;;;;;;0.77;85.39;98007.44;10423701;28;19966;-57
2023/01/08 21:22:11;;;;;;;;;;;;;;;0.63;86.60;98008.56;10417852;28;20123;-56
2023/01/08 21:27:10;;;;;;;10.98;7.53;;;;;;;0.39;86.67;97978.63;10412876;28;19926;-56
2023/01/08 21:32:09;;;;;;;;;;;;;;;0.60;86.05;97996.53;10415403;28;20036;-56
2023/01/08 21:37:08;;;;;;;9.70;3.55;;;;;;;0.64;85.97;97990.75;10416416;28;19955;-57
2023/01/08 21:47:27;;;;;;;16.42;7.65;;;;;;;0.69;86.17;97984.16;10395808;28;19960;-57
2023/01/08 21:57:44;;;;;;;24.85;12.07;;;;;;;0.32;87.54;97975.75;10394929;28;20826;-57
2023/01/08 22:02:43;;;;;;;12.68;6.80;;;;;;;0.24;87.96;97988.16;10406223;28;20075;-56
2023/01/08 22:07:41;;;;;;;;;;;;;;;0.02;87.93;97996.56;10391573;28;20076;-57
2023/01/08 22:12:40;;;;;;;1.80;1.70;;;;;;;0.02;87.42;97981.28;10398750;28;19920;-57
2023/01/08 22:17:39;;;;;;;;;;;;;;;0.12;86.86;98000.41;10393106;28;20059;-57
2023/01/08 22:22:40;;;;;;;14.17;8.70;;;;;;;0.15;86.50;97993.78;10400957;28;20063;-57
2023/01/08 22:27:38;;;;;;;9.43;6.18;;;;;;;0.11;86.69;97997.00;10412080;28;20051;-57
2023/01/08 22:32:37;;;;;;;;;;;;;;;0.09;87.43;97972.22;10403569;28;20115;-57
2023/01/08 22:37:36;;;;;;;4.38;2.75;;;;;;;0.15;87.19;97972.50;10397895;28;19948;-57
2023/01/08 22:42:35;;;;;;;;;;;;;;;0.02;88.21;97965.97;10396899;28;20130;-57
2023/01/08 22:47:34;;;;;;;8.83;2.23;;;;;;;-0.10;88.92;97929.72;10400686;28;19913;-57
2023/01/08 22:52:33;;;;;;;;;;;;;;;0.15;88.75;97941.88;10400692;28;20131;-57
2023/01/08 22:57:32;;;;;;;2.72;2.42;;;;;;;0.29;88.89;97940.78;10394752;28;20516;-57
2023/01/08 23:02:30;;;;;;;;;;;;;;;0.31;89.29;97936.59;10399667;28;20529;-57
2023/01/08 23:07:29;;;;;;;0.30;0.30;;;;;;;0.40;89.25;97913.13;10385142;28;19951;-57
2023/01/08 23:12:31;;;;;;;2.15;2.05;;;;;;;0.59;89.05;97907.97;10384443;28;20139;-59
2023/01/08 23:17:30;;;;;;;12.13;5.82;;;;;;;0.82;88.64;97911.44;10372148;28;20131;-58
2023/01/08 23:22:32;;;;;;;;;;;;;;;0.83;88.90;97907.22;10375075;28;20127;-57
2023/01/08 23:27:32;;;;;;;10.45;4.57;;;;;;;1.03;88.06;97911.41;10401693;28;20006;-57
2023/01/08 23:32:31;;;;;;;0.60;0.60;;;;;;;0.99;87.86;97918.88;10400354;28;20427;-57
2023/01/08 23:37:30;;;;;;;2.65;2.45;;;;;;;1.16;87.53;97928.09;10387392;28;20826;-57
2023/01/08 23:42:29;;;;;;;;;;;;;;;1.25;86.09;97914.81;10389541;28;20554;-57
2023/01/08 23:47:28;;;;;;;5.05;3.03;;;;;;;1.26;86.34;97917.41;10384908;28;20379;-57
2023/01/08 23:52:27;;;;;;;;;;;;;;;1.62;87.89;97911.94;10395321;28;20131;-57
2023/01/08 23:57:26;;;;;;;18.20;8.68;;;;;;;2.21;89.22;97904.63;10403284;28;19912;-57
